sensor_id;sensor_type;location;lat;lon;timestamp;P1;durP1;ratioP1;P2;durP2;ratioP2
12048;SDS011;6085;49.452;8.502;2023-03-02T00:03:57;15.50;;;11.25;;
12048;SDS011;6085;49.452;8.502;2023-03-02T00:08:01;16.27;;;11.50;;
12048;SDS011;6085;49.452;8.502;2023-03-02T00:12:04;16.85;;;11.70;;
12048;SDS011;6085;49.452;8.502;2023-03-02T00:16:08;19.00;;;11.88;;
12048;SDS011;6085;49.452;8.502;2023-03-02T00:20:11;19.13;;;12.20;;
12048;SDS011;6085;49.452;8.502;2023-03-02T00:24:13;16.58;;;11.57;;
12048;SDS011;6085;49.452;8.502;2023-03-02T00:28:15;17.00;;;10.93;;
12048;SDS011;6085;49.452;8.502;2023-03-02T00:32:18;16.17;;;11.98;;
12048;SDS011;6085;49.452;8.502;2023-03-02T00:36:20;18.98;;;11.90;;
12048;SDS011;6085;49.452;8.502;2023-03-02T00:40:22;17.92;;;11.82;;
12048;SDS011;6085;49.452;8.502;2023-03-02T00:44:24;19.35;;;13.07;;
12048;SDS011;6085;49.452;8.502;2023-03-02T00:48:27;17.15;;;11.82;;
12048;SDS011;6085;49.452;8.502;2023-03-02T00:52:30;17.85;;;12.18;;
12048;SDS011;6085;49.452;8.502;2023-03-02T00:56:32;17.75;;;12.25;;
12048;SDS011;6085;49.452;8.502;2023-03-02T01:00:35;15.50;;;11.43;;
12048;SDS011;6085;49.452;8.502;2023-03-02T01:04:39;17.77;;;11.85;;
12048;SDS011;6085;49.452;8.502;2023-03-02T01:08:43;18.73;;;12.15;;
12048;SDS011;6085;49.452;8.502;2023-03-02T01:12:45;18.25;;;12.68;;
12048;SDS011;6085;49.452;8.502;2023-03-02T01:16:47;19.08;;;11.63;;
12048;SDS011;6085;49.452;8.502;2023-03-02T01:20:51;19.02;;;13.15;;
12048;SDS011;6085;49.452;8.502;2023-03-02T01:25:02;17.30;;;11.52;;
12048;SDS011;6085;49.452;8.502;2023-03-02T01:29:04;16.80;;;11.98;;
12048;SDS011;6085;49.452;8.502;2023-03-02T01:33:05;17.90;;;12.23;;
12048;SDS011;6085;49.452;8.502;2023-03-02T01:37:09;18.17;;;12.35;;
12048;SDS011;6085;49.452;8.502;2023-03-02T01:41:10;17.23;;;12.18;;
12048;SDS011;6085;49.452;8.502;2023-03-02T01:49:46;20.25;;;12.73;;
12048;SDS011;6085;49.452;8.502;2023-03-02T01:53:52;19.63;;;13.35;;
12048;SDS011;6085;49.452;8.502;2023-03-02T01:57:58;18.90;;;12.32;;
12048;SDS011;6085;49.452;8.502;2023-03-02T02:02:03;18.67;;;13.05;;
12048;SDS011;6085;49.452;8.502;2023-03-02T02:06:08;19.33;;;12.60;;
12048;SDS011;6085;49.452;8.502;2023-03-02T02:10:18;19.65;;;12.77;;
12048;SDS011;6085;49.452;8.502;2023-03-02T02:14:20;19.35;;;12.93;;
12048;SDS011;6085;49.452;8.502;2023-03-02T02:18:22;18.77;;;12.38;;
12048;SDS011;6085;49.452;8.502;2023-03-02T02:22:27;19.25;;;13.02;;
12048;SDS011;6085;49.452;8.502;2023-03-02T02:26:37;20.08;;;13.15;;
12048;SDS011;6085;49.452;8.502;2023-03-02T02:30:44;19.13;;;12.80;;
12048;SDS011;6085;49.452;8.502;2023-03-02T02:34:48;19.17;;;12.25;;
12048;SDS011;6085;49.452;8.502;2023-03-02T02:38:55;20.33;;;13.15;;
12048;SDS011;6085;49.452;8.502;2023-03-02T02:42:58;17.13;;;11.98;;
12048;SDS011;6085;49.452;8.502;2023-03-02T02:47:00;18.00;;;12.27;;
12048;SDS011;6085;49.452;8.502;2023-03-02T02:51:03;22.33;;;13.00;;
12048;SDS011;6085;49.452;8.502;2023-03-02T02:55:08;19.00;;;12.10;;
12048;SDS011;6085;49.452;8.502;2023-03-02T02:59:22;19.15;;;12.05;;
12048;SDS011;6085;49.452;8.502;2023-03-02T03:03:28;16.83;;;11.88;;
12048;SDS011;6085;49.452;8.502;2023-03-02T03:07:32;17.88;;;11.82;;
12048;SDS011;6085;49.452;8.502;2023-03-02T03:11:35;19.90;;;12.70;;
12048;SDS011;6085;49.452;8.502;2023-03-02T03:15:39;18.10;;;11.95;;
12048;SDS011;6085;49.452;8.502;2023-03-02T03:19:42;19.58;;;12.30;;
12048;SDS011;6085;49.452;8.502;2023-03-02T03:23:45;16.70;;;11.23;;
12048;SDS011;6085;49.452;8.502;2023-03-02T03:27:48;16.55;;;11.07;;
12048;SDS011;6085;49.452;8.502;2023-03-02T03:31:52;18.88;;;11.75;;
12048;SDS011;6085;49.452;8.502;2023-03-02T03:35:55;18.88;;;11.25;;
12048;SDS011;6085;49.452;8.502;2023-03-02T03:39:57;16.83;;;11.43;;
12048;SDS011;6085;49.452;8.502;2023-03-02T03:43:58;18.90;;;12.13;;
12048;SDS011;6085;49.452;8.502;2023-03-02T03:48:02;18.02;;;11.35;;
12048;SDS011;6085;49.452;8.502;2023-03-02T03:52:04;19.08;;;12.00;;
12048;SDS011;6085;49.452;8.502;2023-03-02T03:56:06;18.60;;;11.45;;
12048;SDS011;6085;49.452;8.502;2023-03-02T04:00:09;20.40;;;11.95;;
12048;SDS011;6085;49.452;8.502;2023-03-02T04:04:18;16.27;;;11.93;;
12048;SDS011;6085;49.452;8.502;2023-03-02T04:08:22;20.27;;;12.55;;
12048;SDS011;6085;49.452;8.502;2023-03-02T04:12:23;15.68;;;11.13;;
12048;SDS011;6085;49.452;8.502;2023-03-02T04:16:26;17.40;;;11.25;;
12048;SDS011;6085;49.452;8.502;2023-03-02T04:20:30;17.60;;;11.23;;
12048;SDS011;6085;49.452;8.502;2023-03-02T04:24:32;14.30;;;10.93;;
12048;SDS011;6085;49.452;8.502;2023-03-02T04:28:34;17.95;;;11.82;;
12048;SDS011;6085;49.452;8.502;2023-03-02T04:32:36;19.63;;;12.32;;
12048;SDS011;6085;49.452;8.502;2023-03-02T04:36:39;18.88;;;11.13;;
12048;SDS011;6085;49.452;8.502;2023-03-02T04:40:41;17.88;;;12.30;;
12048;SDS011;6085;49.452;8.502;2023-03-02T04:44:45;18.23;;;11.18;;
12048;SDS011;6085;49.452;8.502;2023-03-02T04:48:46;16.55;;;11.20;;
12048;SDS011;6085;49.452;8.502;2023-03-02T04:52:50;18.10;;;12.30;;
12048;SDS011;6085;49.452;8.502;2023-03-02T04:56:52;15.93;;;11.02;;
12048;SDS011;6085;49.452;8.502;2023-03-02T05:00:54;16.27;;;11.15;;
12048;SDS011;6085;49.452;8.502;2023-03-02T05:05:01;17.75;;;11.57;;
12048;SDS011;6085;49.452;8.502;2023-03-02T05:09:04;18.38;;;11.70;;
12048;SDS011;6085;49.452;8.502;2023-03-02T05:13:06;15.43;;;11.00;;
12048;SDS011;6085;49.452;8.502;2023-03-02T05:17:08;18.67;;;12.20;;
12048;SDS011;6085;49.452;8.502;2023-03-02T05:21:10;18.17;;;11.40;;
12048;SDS011;6085;49.452;8.502;2023-03-02T05:25:14;16.90;;;11.02;;
12048;SDS011;6085;49.452;8.502;2023-03-02T05:29:16;16.88;;;10.85;;
12048;SDS011;6085;49.452;8.502;2023-03-02T05:33:18;19.00;;;11.13;;
12048;SDS011;6085;49.452;8.502;2023-03-02T05:37:21;16.35;;;10.50;;
12048;SDS011;6085;49.452;8.502;2023-03-02T05:41:24;16.35;;;10.65;;
12048;SDS011;6085;49.452;8.502;2023-03-02T05:45:27;17.20;;;10.65;;
12048;SDS011;6085;49.452;8.502;2023-03-02T05:49:30;17.45;;;11.85;;
12048;SDS011;6085;49.452;8.502;2023-03-02T05:53:32;20.13;;;12.02;;
12048;SDS011;6085;49.452;8.502;2023-03-02T05:57:36;15.68;;;11.25;;
12048;SDS011;6085;49.452;8.502;2023-03-02T06:01:38;14.50;;;11.25;;
12048;SDS011;6085;49.452;8.502;2023-03-02T06:05:40;17.67;;;11.60;;
12048;SDS011;6085;49.452;8.502;2023-03-02T06:09:42;17.60;;;11.25;;
12048;SDS011;6085;49.452;8.502;2023-03-02T06:13:45;19.23;;;11.60;;
12048;SDS011;6085;49.452;8.502;2023-03-02T06:17:47;20.60;;;10.77;;
12048;SDS011;6085;49.452;8.502;2023-03-02T06:21:49;18.77;;;11.10;;
12048;SDS011;6085;49.452;8.502;2023-03-02T06:25:51;19.05;;;11.95;;
12048;SDS011;6085;49.452;8.502;2023-03-02T06:29:54;20.02;;;11.65;;
12048;SDS011;6085;49.452;8.502;2023-03-02T06:33:56;16.83;;;11.55;;
12048;SDS011;6085;49.452;8.502;2023-03-02T06:37:57;18.63;;;10.75;;
12048;SDS011;6085;49.452;8.502;2023-03-02T06:41:59;18.83;;;11.43;;
12048;SDS011;6085;49.452;8.502;2023-03-02T06:46:03;18.45;;;11.57;;
12048;SDS011;6085;49.452;8.502;2023-03-02T06:50:05;17.85;;;11.23;;
12048;SDS011;6085;49.452;8.502;2023-03-02T06:54:08;24.33;;;11.23;;
12048;SDS011;6085;49.452;8.502;2023-03-02T06:58:09;16.98;;;11.20;;
12048;SDS011;6085;49.452;8.502;2023-03-02T07:02:13;17.63;;;11.43;;
12048;SDS011;6085;49.452;8.502;2023-03-02T07:06:15;16.33;;;11.02;;
12048;SDS011;6085;49.452;8.502;2023-03-02T07:10:17;17.20;;;11.02;;
12048;SDS011;6085;49.452;8.502;2023-03-02T07:14:19;15.52;;;10.52;;
12048;SDS011;6085;49.452;8.502;2023-03-02T07:18:22;15.43;;;10.40;;
12048;SDS011;6085;49.452;8.502;2023-03-02T07:22:24;16.73;;;10.43;;
12048;SDS011;6085;49.452;8.502;2023-03-02T07:26:26;15.18;;;10.50;;
12048;SDS011;6085;49.452;8.502;2023-03-02T07:30:28;14.55;;;10.68;;
12048;SDS011;6085;49.452;8.502;2023-03-02T07:34:31;18.17;;;11.15;;
12048;SDS011;6085;49.452;8.502;2023-03-02T07:38:33;14.60;;;10.85;;
12048;SDS011;6085;49.452;8.502;2023-03-02T07:42:36;16.00;;;10.48;;
12048;SDS011;6085;49.452;8.502;2023-03-02T07:46:38;13.98;;;10.32;;
12048;SDS011;6085;49.452;8.502;2023-03-02T07:50:41;17.02;;;10.30;;
12048;SDS011;6085;49.452;8.502;2023-03-02T07:54:43;17.33;;;11.02;;
12048;SDS011;6085;49.452;8.502;2023-03-02T07:58:45;18.42;;;10.65;;
12048;SDS011;6085;49.452;8.502;2023-03-02T08:02:47;17.05;;;10.65;;
12048;SDS011;6085;49.452;8.502;2023-03-02T08:06:51;16.17;;;10.82;;
12048;SDS011;6085;49.452;8.502;2023-03-02T08:10:53;15.75;;;10.77;;
12048;SDS011;6085;49.452;8.502;2023-03-02T08:14:55;19.17;;;10.75;;
12048;SDS011;6085;49.452;8.502;2023-03-02T08:18:57;15.27;;;10.65;;
12048;SDS011;6085;49.452;8.502;2023-03-02T08:23:00;16.55;;;10.73;;
12048;SDS011;6085;49.452;8.502;2023-03-02T08:27:02;14.43;;;9.57;;
12048;SDS011;6085;49.452;8.502;2023-03-02T08:31:06;13.73;;;9.93;;
12048;SDS011;6085;49.452;8.502;2023-03-02T08:35:08;13.88;;;10.73;;
12048;SDS011;6085;49.452;8.502;2023-03-02T08:39:13;17.92;;;10.48;;
12048;SDS011;6085;49.452;8.502;2023-03-02T08:43:15;14.07;;;10.13;;
12048;SDS011;6085;49.452;8.502;2023-03-02T08:47:16;15.07;;;10.25;;
12048;SDS011;6085;49.452;8.502;2023-03-02T08:51:19;15.48;;;11.13;;
12048;SDS011;6085;49.452;8.502;2023-03-02T08:55:24;15.13;;;11.52;;
12048;SDS011;6085;49.452;8.502;2023-03-02T08:59:25;14.10;;;11.02;;
12048;SDS011;6085;49.452;8.502;2023-03-02T09:03:27;12.00;;;9.90;;
12048;SDS011;6085;49.452;8.502;2023-03-02T09:07:29;13.23;;;10.30;;
12048;SDS011;6085;49.452;8.502;2023-03-02T09:11:32;14.40;;;11.02;;
12048;SDS011;6085;49.452;8.502;2023-03-02T09:15:34;12.82;;;10.32;;
12048;SDS011;6085;49.452;8.502;2023-03-02T09:19:36;13.77;;;10.48;;
12048;SDS011;6085;49.452;8.502;2023-03-02T09:23:40;14.80;;;11.13;;
12048;SDS011;6085;49.452;8.502;2023-03-02T09:27:44;13.15;;;10.00;;
12048;SDS011;6085;49.452;8.502;2023-03-02T09:31:46;12.75;;;10.55;;
12048;SDS011;6085;49.452;8.502;2023-03-02T09:35:48;14.45;;;10.80;;
12048;SDS011;6085;49.452;8.502;2023-03-02T09:39:51;12.85;;;10.50;;
12048;SDS011;6085;49.452;8.502;2023-03-02T09:43:56;12.75;;;10.73;;
12048;SDS011;6085;49.452;8.502;2023-03-02T09:48:12;12.52;;;10.23;;
12048;SDS011;6085;49.452;8.502;2023-03-02T09:52:27;12.63;;;11.23;;
12048;SDS011;6085;49.452;8.502;2023-03-02T09:56:32;12.65;;;10.30;;
12048;SDS011;6085;49.452;8.502;2023-03-02T10:00:39;14.05;;;11.00;;
12048;SDS011;6085;49.452;8.502;2023-03-02T10:04:44;15.05;;;10.02;;
12048;SDS011;6085;49.452;8.502;2023-03-02T10:08:49;11.98;;;10.27;;
12048;SDS011;6085;49.452;8.502;2023-03-02T10:12:55;13.50;;;9.85;;
12048;SDS011;6085;49.452;8.502;2023-03-02T10:17:16;12.60;;;10.07;;
12048;SDS011;6085;49.452;8.502;2023-03-02T10:21:27;12.93;;;10.52;;
12048;SDS011;6085;49.452;8.502;2023-03-02T10:25:36;13.30;;;10.23;;
12048;SDS011;6085;49.452;8.502;2023-03-02T10:29:43;13.23;;;10.52;;
12048;SDS011;6085;49.452;8.502;2023-03-02T10:33:51;11.98;;;9.77;;
12048;SDS011;6085;49.452;8.502;2023-03-02T10:37:54;11.63;;;10.30;;
12048;SDS011;6085;49.452;8.502;2023-03-02T10:42:01;11.50;;;9.50;;
12048;SDS011;6085;49.452;8.502;2023-03-02T10:46:06;15.23;;;10.15;;
12048;SDS011;6085;49.452;8.502;2023-03-02T10:50:19;13.43;;;10.13;;
12048;SDS011;6085;49.452;8.502;2023-03-02T10:54:22;14.73;;;9.93;;
12048;SDS011;6085;49.452;8.502;2023-03-02T10:58:28;13.32;;;9.68;;
12048;SDS011;6085;49.452;8.502;2023-03-02T11:02:32;14.10;;;9.98;;
12048;SDS011;6085;49.452;8.502;2023-03-02T11:06:37;11.40;;;9.35;;
12048;SDS011;6085;49.452;8.502;2023-03-02T11:10:39;11.77;;;9.40;;
12048;SDS011;6085;49.452;8.502;2023-03-02T11:14:59;13.70;;;9.43;;
12048;SDS011;6085;49.452;8.502;2023-03-02T11:19:03;17.20;;;9.23;;
12048;SDS011;6085;49.452;8.502;2023-03-02T11:27:33;13.57;;;9.10;;
12048;SDS011;6085;49.452;8.502;2023-03-02T11:31:40;11.15;;;9.60;;
12048;SDS011;6085;49.452;8.502;2023-03-02T11:35:46;12.48;;;9.30;;
12048;SDS011;6085;49.452;8.502;2023-03-02T11:40:00;15.77;;;9.45;;
12048;SDS011;6085;49.452;8.502;2023-03-02T11:44:08;13.85;;;10.20;;
12048;SDS011;6085;49.452;8.502;2023-03-02T11:48:16;11.15;;;9.27;;
12048;SDS011;6085;49.452;8.502;2023-03-02T11:52:23;12.75;;;10.13;;
12048;SDS011;6085;49.452;8.502;2023-03-02T11:56:28;14.70;;;9.40;;
12048;SDS011;6085;49.452;8.502;2023-03-02T12:00:34;18.42;;;9.95;;
12048;SDS011;6085;49.452;8.502;2023-03-02T12:04:37;12.38;;;9.98;;
12048;SDS011;6085;49.452;8.502;2023-03-02T12:08:39;13.38;;;8.68;;
12048;SDS011;6085;49.452;8.502;2023-03-02T12:12:46;12.98;;;8.75;;
12048;SDS011;6085;49.452;8.502;2023-03-02T12:17:18;14.73;;;9.93;;
12048;SDS011;6085;49.452;8.502;2023-03-02T12:21:23;11.55;;;9.18;;
12048;SDS011;6085;49.452;8.502;2023-03-02T12:25:27;10.65;;;9.20;;
12048;SDS011;6085;49.452;8.502;2023-03-02T12:29:40;10.70;;;8.90;;
12048;SDS011;6085;49.452;8.502;2023-03-02T12:33:45;12.27;;;8.95;;
12048;SDS011;6085;49.452;8.502;2023-03-02T12:37:50;11.60;;;8.77;;
12048;SDS011;6085;49.452;8.502;2023-03-02T12:42:00;11.52;;;9.15;;
12048;SDS011;6085;49.452;8.502;2023-03-02T12:46:28;13.38;;;9.15;;
12048;SDS011;6085;49.452;8.502;2023-03-02T12:50:33;11.40;;;9.85;;
12048;SDS011;6085;49.452;8.502;2023-03-02T12:54:39;11.27;;;9.40;;
12048;SDS011;6085;49.452;8.502;2023-03-02T12:58:47;11.50;;;9.10;;
12048;SDS011;6085;49.452;8.502;2023-03-02T13:02:51;12.95;;;9.38;;
12048;SDS011;6085;49.452;8.502;2023-03-02T13:06:54;10.70;;;8.88;;
12048;SDS011;6085;49.452;8.502;2023-03-02T13:10:56;11.40;;;8.73;;
12048;SDS011;6085;49.452;8.502;2023-03-02T13:15:01;9.93;;;8.63;;
12048;SDS011;6085;49.452;8.502;2023-03-02T13:19:08;10.02;;;8.43;;
12048;SDS011;6085;49.452;8.502;2023-03-02T13:23:14;10.80;;;9.07;;
12048;SDS011;6085;49.452;8.502;2023-03-02T13:27:18;12.35;;;8.63;;
12048;SDS011;6085;49.452;8.502;2023-03-02T13:31:21;11.18;;;8.82;;
12048;SDS011;6085;49.452;8.502;2023-03-02T13:35:27;14.70;;;8.50;;
12048;SDS011;6085;49.452;8.502;2023-03-02T13:39:30;11.18;;;8.38;;
12048;SDS011;6085;49.452;8.502;2023-03-02T13:43:34;13.98;;;8.52;;
12048;SDS011;6085;49.452;8.502;2023-03-02T13:47:37;10.73;;;8.98;;
12048;SDS011;6085;49.452;8.502;2023-03-02T13:51:45;11.98;;;8.45;;
12048;SDS011;6085;49.452;8.502;2023-03-02T13:55:47;13.55;;;8.27;;
12048;SDS011;6085;49.452;8.502;2023-03-02T13:59:49;9.82;;;8.45;;
12048;SDS011;6085;49.452;8.502;2023-03-02T14:03:51;13.48;;;8.32;;
12048;SDS011;6085;49.452;8.502;2023-03-02T14:07:54;12.88;;;8.57;;
12048;SDS011;6085;49.452;8.502;2023-03-02T14:11:56;10.43;;;8.68;;
12048;SDS011;6085;49.452;8.502;2023-03-02T14:15:58;10.05;;;8.63;;
12048;SDS011;6085;49.452;8.502;2023-03-02T14:20:00;11.40;;;8.52;;
12048;SDS011;6085;49.452;8.502;2023-03-02T14:24:04;12.43;;;8.45;;
12048;SDS011;6085;49.452;8.502;2023-03-02T14:28:07;9.63;;;8.15;;
12048;SDS011;6085;49.452;8.502;2023-03-02T14:32:11;9.45;;;8.15;;
12048;SDS011;6085;49.452;8.502;2023-03-02T14:36:16;10.57;;;7.82;;
12048;SDS011;6085;49.452;8.502;2023-03-02T14:40:29;9.85;;;7.55;;
12048;SDS011;6085;49.452;8.502;2023-03-02T14:44:32;10.10;;;7.63;;
12048;SDS011;6085;49.452;8.502;2023-03-02T14:48:34;11.63;;;8.00;;
12048;SDS011;6085;49.452;8.502;2023-03-02T14:52:36;10.00;;;7.57;;
12048;SDS011;6085;49.452;8.502;2023-03-02T14:56:42;9.13;;;7.18;;
12048;SDS011;6085;49.452;8.502;2023-03-02T15:00:44;10.23;;;7.10;;
12048;SDS011;6085;49.452;8.502;2023-03-02T15:04:47;7.47;;;6.68;;
12048;SDS011;6085;49.452;8.502;2023-03-02T15:08:51;8.80;;;7.25;;
12048;SDS011;6085;49.452;8.502;2023-03-02T15:12:54;10.60;;;7.03;;
12048;SDS011;6085;49.452;8.502;2023-03-02T15:16:56;9.48;;;7.18;;
12048;SDS011;6085;49.452;8.502;2023-03-02T15:20:58;10.10;;;6.95;;
12048;SDS011;6085;49.452;8.502;2023-03-02T15:25:00;11.48;;;6.90;;
12048;SDS011;6085;49.452;8.502;2023-03-02T15:29:03;10.00;;;6.97;;
12048;SDS011;6085;49.452;8.502;2023-03-02T15:33:05;9.50;;;6.75;;
12048;SDS011;6085;49.452;8.502;2023-03-02T15:37:08;9.70;;;7.13;;
12048;SDS011;6085;49.452;8.502;2023-03-02T15:41:11;7.75;;;6.68;;
12048;SDS011;6085;49.452;8.502;2023-03-02T15:45:15;8.60;;;7.00;;
12048;SDS011;6085;49.452;8.502;2023-03-02T15:49:17;10.57;;;7.43;;
12048;SDS011;6085;49.452;8.502;2023-03-02T15:53:21;9.10;;;6.68;;
12048;SDS011;6085;49.452;8.502;2023-03-02T15:57:23;8.13;;;6.28;;
12048;SDS011;6085;49.452;8.502;2023-03-02T16:01:26;8.23;;;6.38;;
12048;SDS011;6085;49.452;8.502;2023-03-02T16:05:28;7.47;;;6.43;;
12048;SDS011;6085;49.452;8.502;2023-03-02T16:09:30;9.77;;;6.88;;
12048;SDS011;6085;49.452;8.502;2023-03-02T16:13:32;8.18;;;6.80;;
12048;SDS011;6085;49.452;8.502;2023-03-02T16:17:35;11.68;;;6.88;;
12048;SDS011;6085;49.452;8.502;2023-03-02T16:21:37;9.10;;;6.15;;
12048;SDS011;6085;49.452;8.502;2023-03-02T16:25:40;9.32;;;6.30;;
12048;SDS011;6085;49.452;8.502;2023-03-02T16:29:43;8.13;;;5.85;;
12048;SDS011;6085;49.452;8.502;2023-03-02T16:33:46;11.23;;;6.40;;
12048;SDS011;6085;49.452;8.502;2023-03-02T16:37:50;9.18;;;6.20;;
12048;SDS011;6085;49.452;8.502;2023-03-02T16:41:52;8.07;;;6.35;;
12048;SDS011;6085;49.452;8.502;2023-03-02T16:45:54;13.75;;;6.07;;
12048;SDS011;6085;49.452;8.502;2023-03-02T16:49:57;8.98;;;5.55;;
12048;SDS011;6085;49.452;8.502;2023-03-02T16:53:59;9.55;;;5.68;;
12048;SDS011;6085;49.452;8.502;2023-03-02T16:58:02;8.27;;;5.38;;
12048;SDS011;6085;49.452;8.502;2023-03-02T17:02:03;7.30;;;5.65;;
12048;SDS011;6085;49.452;8.502;2023-03-02T17:06:07;9.27;;;6.68;;
12048;SDS011;6085;49.452;8.502;2023-03-02T17:10:11;8.27;;;6.22;;
12048;SDS011;6085;49.452;8.502;2023-03-02T17:14:14;9.07;;;5.90;;
12048;SDS011;6085;49.452;8.502;2023-03-02T17:18:16;9.77;;;5.75;;
12048;SDS011;6085;49.452;8.502;2023-03-02T17:22:19;10.95;;;6.72;;
12048;SDS011;6085;49.452;8.502;2023-03-02T17:26:21;11.23;;;6.60;;
12048;SDS011;6085;49.452;8.502;2023-03-02T17:30:22;8.63;;;6.25;;
12048;SDS011;6085;49.452;8.502;2023-03-02T17:34:24;9.65;;;6.07;;
12048;SDS011;6085;49.452;8.502;2023-03-02T17:38:30;8.15;;;6.35;;
12048;SDS011;6085;49.452;8.502;2023-03-02T17:42:32;10.10;;;6.05;;
12048;SDS011;6085;49.452;8.502;2023-03-02T17:46:34;8.90;;;6.15;;
12048;SDS011;6085;49.452;8.502;2023-03-02T17:50:36;10.25;;;6.55;;
12048;SDS011;6085;49.452;8.502;2023-03-02T17:54:39;9.23;;;6.45;;
12048;SDS011;6085;49.452;8.502;2023-03-02T17:58:41;10.88;;;6.93;;
12048;SDS011;6085;49.452;8.502;2023-03-02T18:02:46;12.25;;;9.00;;
12048;SDS011;6085;49.452;8.502;2023-03-02T18:06:48;9.98;;;7.60;;
12048;SDS011;6085;49.452;8.502;2023-03-02T18:10:51;10.73;;;7.22;;
12048;SDS011;6085;49.452;8.502;2023-03-02T18:14:53;11.18;;;7.20;;
12048;SDS011;6085;49.452;8.502;2023-03-02T18:18:55;11.60;;;7.43;;
12048;SDS011;6085;49.452;8.502;2023-03-02T18:22:57;8.93;;;7.43;;
12048;SDS011;6085;49.452;8.502;2023-03-02T18:27:00;10.00;;;7.63;;
12048;SDS011;6085;49.452;8.502;2023-03-02T18:31:02;11.15;;;7.93;;
12048;SDS011;6085;49.452;8.502;2023-03-02T18:35:04;10.48;;;7.43;;
12048;SDS011;6085;49.452;8.502;2023-03-02T18:39:07;11.30;;;7.00;;
12048;SDS011;6085;49.452;8.502;2023-03-02T18:43:10;11.57;;;7.10;;
12048;SDS011;6085;49.452;8.502;2023-03-02T18:47:13;11.60;;;7.50;;
12048;SDS011;6085;49.452;8.502;2023-03-02T18:51:17;11.88;;;7.68;;
12048;SDS011;6085;49.452;8.502;2023-03-02T18:55:20;12.38;;;7.13;;
12048;SDS011;6085;49.452;8.502;2023-03-02T18:59:25;9.57;;;7.15;;
12048;SDS011;6085;49.452;8.502;2023-03-02T19:03:27;10.10;;;7.00;;
12048;SDS011;6085;49.452;8.502;2023-03-02T19:07:30;11.13;;;7.30;;
12048;SDS011;6085;49.452;8.502;2023-03-02T19:11:32;11.23;;;7.35;;
12048;SDS011;6085;49.452;8.502;2023-03-02T19:15:35;11.70;;;7.45;;
12048;SDS011;6085;49.452;8.502;2023-03-02T19:19:38;10.40;;;7.40;;
12048;SDS011;6085;49.452;8.502;2023-03-02T19:23:40;12.05;;;8.02;;
12048;SDS011;6085;49.452;8.502;2023-03-02T19:27:42;11.70;;;7.72;;
12048;SDS011;6085;49.452;8.502;2023-03-02T19:31:45;12.52;;;7.95;;
12048;SDS011;6085;49.452;8.502;2023-03-02T19:35:47;10.77;;;7.57;;
12048;SDS011;6085;49.452;8.502;2023-03-02T19:39:49;11.07;;;7.65;;
12048;SDS011;6085;49.452;8.502;2023-03-02T19:43:50;10.27;;;7.70;;
12048;SDS011;6085;49.452;8.502;2023-03-02T19:47:54;10.95;;;7.68;;
12048;SDS011;6085;49.452;8.502;2023-03-02T19:51:55;11.27;;;7.75;;
12048;SDS011;6085;49.452;8.502;2023-03-02T19:55:58;11.05;;;7.82;;
12048;SDS011;6085;49.452;8.502;2023-03-02T20:00:02;11.70;;;7.80;;
12048;SDS011;6085;49.452;8.502;2023-03-02T20:04:06;11.52;;;8.35;;
12048;SDS011;6085;49.452;8.502;2023-03-02T20:08:08;11.45;;;8.10;;
12048;SDS011;6085;49.452;8.502;2023-03-02T20:12:10;11.63;;;8.18;;
12048;SDS011;6085;49.452;8.502;2023-03-02T20:16:12;13.75;;;8.60;;
12048;SDS011;6085;49.452;8.502;2023-03-02T20:20:16;12.98;;;8.80;;
12048;SDS011;6085;49.452;8.502;2023-03-02T20:24:18;13.52;;;8.57;;
12048;SDS011;6085;49.452;8.502;2023-03-02T20:28:22;11.48;;;7.70;;
12048;SDS011;6085;49.452;8.502;2023-03-02T20:32:29;11.38;;;8.52;;
12048;SDS011;6085;49.452;8.502;2023-03-02T20:36:34;12.73;;;8.57;;
12048;SDS011;6085;49.452;8.502;2023-03-02T20:40:37;13.30;;;8.73;;
12048;SDS011;6085;49.452;8.502;2023-03-02T20:44:40;11.75;;;8.20;;
12048;SDS011;6085;49.452;8.502;2023-03-02T20:48:43;14.43;;;9.80;;
12048;SDS011;6085;49.452;8.502;2023-03-02T20:52:48;15.25;;;10.50;;
12048;SDS011;6085;49.452;8.502;2023-03-02T20:56:51;15.93;;;9.98;;
12048;SDS011;6085;49.452;8.502;2023-03-02T21:00:54;14.07;;;11.05;;
12048;SDS011;6085;49.452;8.502;2023-03-02T21:04:57;15.20;;;11.15;;
12048;SDS011;6085;49.452;8.502;2023-03-02T21:09:02;19.00;;;11.55;;
12048;SDS011;6085;49.452;8.502;2023-03-02T21:13:05;15.55;;;11.05;;
12048;SDS011;6085;49.452;8.502;2023-03-02T21:17:09;16.45;;;11.68;;
12048;SDS011;6085;49.452;8.502;2023-03-02T21:21:11;15.02;;;10.80;;
12048;SDS011;6085;49.452;8.502;2023-03-02T21:25:16;17.17;;;11.93;;
12048;SDS011;6085;49.452;8.502;2023-03-02T21:29:19;19.17;;;13.27;;
12048;SDS011;6085;49.452;8.502;2023-03-02T21:33:22;21.20;;;12.80;;
12048;SDS011;6085;49.452;8.502;2023-03-02T21:37:24;18.73;;;13.65;;
12048;SDS011;6085;49.452;8.502;2023-03-02T21:41:27;18.63;;;13.50;;
12048;SDS011;6085;49.452;8.502;2023-03-02T21:45:29;22.35;;;13.88;;
12048;SDS011;6085;49.452;8.502;2023-03-02T21:49:31;20.77;;;13.52;;
12048;SDS011;6085;49.452;8.502;2023-03-02T21:53:33;20.42;;;14.20;;
12048;SDS011;6085;49.452;8.502;2023-03-02T21:57:37;22.95;;;14.77;;
12048;SDS011;6085;49.452;8.502;2023-03-02T22:01:39;23.02;;;14.57;;
12048;SDS011;6085;49.452;8.502;2023-03-02T22:05:41;25.92;;;16.40;;
12048;SDS011;6085;49.452;8.502;2023-03-02T22:09:43;24.70;;;15.57;;
12048;SDS011;6085;49.452;8.502;2023-03-02T22:13:47;21.90;;;15.20;;
12048;SDS011;6085;49.452;8.502;2023-03-02T22:17:49;28.73;;;17.75;;
12048;SDS011;6085;49.452;8.502;2023-03-02T22:21:52;26.17;;;17.25;;
12048;SDS011;6085;49.452;8.502;2023-03-02T22:25:55;28.00;;;17.48;;
12048;SDS011;6085;49.452;8.502;2023-03-02T22:30:15;24.08;;;16.15;;
12048;SDS011;6085;49.452;8.502;2023-03-02T22:34:22;26.02;;;16.73;;
12048;SDS011;6085;49.452;8.502;2023-03-02T22:38:27;25.77;;;16.63;;
12048;SDS011;6085;49.452;8.502;2023-03-02T22:42:30;25.20;;;16.25;;
12048;SDS011;6085;49.452;8.502;2023-03-02T22:46:33;24.10;;;15.80;;
12048;SDS011;6085;49.452;8.502;2023-03-02T22:50:35;24.80;;;16.73;;
12048;SDS011;6085;49.452;8.502;2023-03-02T22:54:37;29.77;;;17.05;;
12048;SDS011;6085;49.452;8.502;2023-03-02T22:58:43;24.40;;;15.60;;
12048;SDS011;6085;49.452;8.502;2023-03-02T23:02:48;25.27;;;16.30;;
12048;SDS011;6085;49.452;8.502;2023-03-02T23:06:51;26.17;;;16.63;;
12048;SDS011;6085;49.452;8.502;2023-03-02T23:10:54;27.92;;;16.50;;
12048;SDS011;6085;49.452;8.502;2023-03-02T23:14:58;24.48;;;16.25;;
12048;SDS011;6085;49.452;8.502;2023-03-02T23:19:02;25.88;;;16.38;;
12048;SDS011;6085;49.452;8.502;2023-03-02T23:23:07;24.42;;;15.38;;
12048;SDS011;6085;49.452;8.502;2023-03-02T23:27:09;26.60;;;15.48;;
12048;SDS011;6085;49.452;8.502;2023-03-02T23:31:14;25.38;;;15.77;;
12048;SDS011;6085;49.452;8.502;2023-03-02T23:35:19;24.60;;;15.77;;
12048;SDS011;6085;49.452;8.502;2023-03-02T23:39:21;25.67;;;15.45;;
12048;SDS011;6085;49.452;8.502;2023-03-02T23:43:23;25.35;;;16.00;;
12048;SDS011;6085;49.452;8.502;2023-03-02T23:47:25;25.08;;;16.77;;
12048;SDS011;6085;49.452;8.502;2023-03-02T23:51:28;30.65;;;18.02;;
12048;SDS011;6085;49.452;8.502;2023-03-02T23:55:30;25.65;;;17.02;;
12048;SDS011;6085;49.452;8.502;2023-03-02T23:59:32;27.27;;;16.48;;
